Time;durP1;ratioP1;P1;durP2;ratioP2;P2;SDS_P1;SDS_P2;PMS_P1;PMS_P2;Temp;Humidity;BMP_temperature;BMP_pressure;BME280_temperature;BME280_humidity;BME280_pressure;Samples;Min_cycle;Max_cycle;Signal;HPM_P1;HPM_P2
2023/05/02 00:01:03;;;;;;;4.70;4.30;;;;;;;;;;474908;29;1635;-74
2023/05/02 00:01:06;;;;;;;;;;;;;;;;;;;;;
2023/05/02 00:02:33;;;;;;;4.43;4.10;;;;;;;;;;459774;29;1117;-74
2023/05/02 00:02:44;;;;;;;;;;;;;;;;;;;;;
2023/05/02 00:03:11;;;;;;;4.63;4.22;;;;;;;;;;455676;29;1774;-73
2023/05/02 00:03:59;;;;;;;4.82;4.43;;;;;;;;;;466264;29;1940;-75
2023/05/02 00:04:59;;;;;;;4.72;4.22;;;;;;;;;;464793;29;1625;-74
2023/05/02 00:05:20;;;;;;;4.32;3.95;;;;;;;;;;464888;29;1318;-74
2023/05/02 00:05:39;;;;;;;4.47;4.07;;;;;;;;;;467369;29;1240;-74
2023/05/02 00:05:58;;;;;;;4.50;4.10;;;;;;;;;;466027;29;1310;-74
2023/05/02 00:06:14;;;;;;;4.38;3.97;;;;;;;;;;466158;29;1217;-74
2023/05/02 00:06:47;;;;;;;4.28;3.97;;;;;;;;;;463537;29;928;-74
2023/05/02 00:07:12;;;;;;;4.40;4.00;;;;;;;;;;464482;29;1290;-72
2023/05/02 00:07:44;;;;;;;4.50;4.10;;;;;;;;;;469868;29;1275;-73
2023/05/02 00:08:18;;;;;;;;;;;;;;;;;;;;;
2023/05/02 00:09:14;;;;;;;4.50;4.10;;;;;;;;;;464618;29;1256;-74
2023/05/02 00:09:38;;;;;;;4.88;4.13;;;;;;;;;;461618;29;1090;-74
2023/05/02 00:10:10;;;;;;;4.40;4.00;;;;;;;;;;470286;29;1338;-73
2023/05/02 00:10:26;;;;;;;4.60;4.20;;;;;;;;;;467057;29;2040;-74
2023/05/02 00:10:58;;;;;;;4.40;4.00;;;;;;;;;;466854;29;1266;-74
2023/05/02 00:11:35;;;;;;;4.00;3.70;;;;;;;;;;468693;29;1291;-74
2023/05/02 00:11:53;;;;;;;4.20;3.90;;;;;;;;;;465183;29;1064;-74
2023/05/02 00:12:40;;;;;;;4.35;3.95;;;;;;;;;;469244;29;1097;-74
2023/05/02 00:13:01;;;;;;;4.50;4.10;;;;;;;;;;467661;29;1091;-74
2023/05/02 00:13:43;;;;;;;4.28;3.88;;;;;;;;;;468335;29;1398;-74
2023/05/02 00:14:11;;;;;;;;;;;;;;;;;;;;;
2023/05/02 00:15:57;;;;;;;4.50;4.10;;;;;;;;;;472051;29;1174;-74
2023/05/02 00:16:35;;;;;;;4.40;4.00;;;;;;;;;;469725;29;1724;-74
2023/05/02 00:17:06;;;;;;;4.07;3.65;;;;;;;;;;477245;29;1255;-74
2023/05/02 00:17:44;;;;;;;4.13;3.80;;;;;;;;;;474841;29;1233;-74
2023/05/02 00:18:27;;;;;;;4.30;3.90;;;;;;;;;;472512;29;1281;-74
2023/05/02 00:18:48;;;;;;;4.60;4.20;;;;;;;;;;473731;29;1098;-74
2023/05/02 00:19:03;;;;;;;4.50;4.07;;;;;;;;;;475508;29;1164;-74
2023/05/02 00:19:19;;;;;;;4.50;4.10;;;;;;;;;;474545;29;1572;-74
2023/05/02 00:19:38;;;;;;;4.30;3.90;;;;;;;;;;477151;29;1327;-74
2023/05/02 00:20:00;;;;;;;4.03;3.70;;;;;;;;;;474352;29;1238;-74
2023/05/02 00:20:35;;;;;;;4.40;4.00;;;;;;;;;;475039;29;1752;-74
2023/05/02 00:20:51;;;;;;;4.78;4.38;;;;;;;;;;475534;29;1091;-74
2023/05/02 00:21:15;;;;;;;4.68;4.28;;;;;;;;;;471562;29;1243;-74
2023/05/02 00:22:19;;;;;;;4.50;4.10;;;;;;;;;;472528;29;1118;-75
2023/05/02 00:22:24;;;;;;;4.60;4.20;;;;;;;;;;476768;29;843;-74
2023/05/02 00:22:39;;;;;;;4.32;3.92;;;;;;;;;;478875;29;1473;-74
2023/05/02 00:23:13;;;;;;;4.40;4.00;;;;;;;;;;477481;29;1160;-74
2023/05/02 00:23:48;;;;;;;4.30;3.90;;;;;;;;;;467579;29;1718;-73
2023/05/02 00:24:25;;;;;;;4.72;4.22;;;;;;;;;;471781;29;1296;-75
2023/05/02 00:24:41;;;;;;;4.45;4.05;;;;;;;;;;463650;29;1317;-74
2023/05/02 00:25:08;;;;;;;4.28;3.88;;;;;;;;;;464934;29;2045;-74
2023/05/02 00:26:09;;;;;;;4.78;4.38;;;;;;;;;;472283;29;1127;-74
2023/05/02 00:26:19;;;;;;;;;;;;;;;;;;;;;
2023/05/02 00:26:47;;;;;;;4.82;4.40;;;;;;;;;;471650;29;1133;-74
2023/05/02 00:27:49;;;;;;;4.97;4.57;;;;;;;;;;466829;29;1249;-74
2023/05/02 00:28:30;;;;;;;;;;;;;;;;;;;;;
2023/05/02 00:29:00;;;;;;;4.93;4.43;;;;;;;;;;466623;29;1323;-74
2023/05/02 00:29:19;;;;;;;5.10;4.60;;;;;;;;;;471797;29;1326;-74
2023/05/02 00:29:58;;;;;;;4.78;4.38;;;;;;;;;;465504;29;1182;-74
2023/05/02 00:30:43;;;;;;;4.60;4.20;;;;;;;;;;464812;29;1956;-74
2023/05/02 00:31:46;;;;;;;4.40;4.03;;;;;;;;;;468203;29;1226;-73
2023/05/02 00:32:05;;;;;;;5.05;4.55;;;;;;;;;;471287;29;1385;-74
2023/05/02 00:32:39;;;;;;;5.03;4.63;;;;;;;;;;476622;29;1425;-74
2023/05/02 00:33:23;;;;;;;;;;;;;;;;;;;;;
2023/05/02 00:35:00;;;;;;;4.93;4.20;;;;;;;;;;470242;29;1192;-74
2023/05/02 00:35:18;;;;;;;4.90;4.50;;;;;;;;;;471092;29;2035;-74
2023/05/02 00:36:18;;;;;;;4.80;4.40;;;;;;;;;;469080;29;1299;-74
2023/05/02 00:36:33;;;;;;;4.82;4.40;;;;;;;;;;473205;29;1334;-74
2023/05/02 00:37:07;;;;;;;5.00;4.47;;;;;;;;;;474879;29;1220;-74
2023/05/02 00:38:23;;;;;;;4.25;3.95;;;;;;;;;;475338;29;1157;-75
2023/05/02 00:38:52;;;;;;;;;;;;;;;;;;;;;
2023/05/02 00:39:07;;;;;;;4.90;4.50;;;;;;;;;;475865;29;1782;-74
2023/05/02 00:39:45;;;;;;;5.07;4.63;;;;;;;;;;475112;29;1139;-75
2023/05/02 00:40:06;;;;;;;4.30;4.00;;;;;;;;;;458691;29;1708;-74
2023/05/02 00:40:41;;;;;;;;;;;;;;;;;;;;;
2023/05/02 00:40:59;;;;;;;5.15;4.60;;;;;;;;;;470965;29;1039;-74
2023/05/02 00:41:18;;;;;;;4.63;4.18;;;;;;;;;;466806;29;1322;-73
2023/05/02 00:41:52;;;;;;;4.60;4.10;;;;;;;;;;464496;29;1263;-73
2023/05/02 00:42:31;;;;;;;4.40;4.00;;;;;;;;;;469563;29;1054;-74
2023/05/02 00:43:09;;;;;;;;;;;;;;;;;;;;;
2023/05/02 00:43:38;;;;;;;5.05;4.38;;;;;;;;;;470848;29;1209;-74
2023/05/02 00:44:23;;;;;;;4.70;4.30;;;;;;;;;;471288;29;1251;-73
2023/05/02 00:44:47;;;;;;;4.53;4.13;;;;;;;;;;471891;29;1283;-75
2023/05/02 00:45:14;;;;;;;4.50;4.20;;;;;;;;;;466165;29;1209;-74
2023/05/02 00:45:51;;;;;;;4.55;4.25;;;;;;;;;;466485;29;2141;-74
2023/05/02 00:47:06;;;;;;;4.25;3.95;;;;;;;;;;468488;29;1169;-73
2023/05/02 00:48:04;;;;;;;;;;;;;;;;;;;;;
2023/05/02 00:48:46;;;;;;;4.80;4.40;;;;;;;;;;466735;29;1265;-73
2023/05/02 00:49:20;;;;;;;4.63;4.22;;;;;;;;;;467656;29;1378;-74
2023/05/02 00:49:36;;;;;;;4.80;4.40;;;;;;;;;;471823;29;1367;-73
2023/05/02 00:51:12;;;;;;;;;;;;;;;;;;;;;
2023/05/02 00:51:58;;;;;;;4.47;4.07;;;;;;;;;;466532;29;1260;-74
2023/05/02 00:52:15;;;;;;;4.60;4.20;;;;;;;;;;466404;29;2031;-74
2023/05/02 00:52:43;;;;;;;4.70;4.30;;;;;;;;;;480864;29;920;-74
2023/05/02 00:53:02;;;;;;;4.72;4.22;;;;;;;;;;476648;29;1138;-74
2023/05/02 00:53:28;;;;;;;4.72;4.32;;;;;;;;;;478167;29;1829;-74
2023/05/02 00:53:46;;;;;;;4.70;4.20;;;;;;;;;;478296;29;1390;-74
2023/05/02 00:54:02;;;;;;;5.05;4.50;;;;;;;;;;481143;29;1224;-74
2023/05/02 00:54:31;;;;;;;4.80;4.40;;;;;;;;;;477664;29;1241;-74
2023/05/02 00:54:53;;;;;;;5.00;4.50;;;;;;;;;;478889;29;1149;-74
2023/05/02 00:55:18;;;;;;;4.80;4.40;;;;;;;;;;478105;29;950;-74
2023/05/02 00:55:56;;;;;;;5.20;4.70;;;;;;;;;;475889;29;1417;-73
2023/05/02 00:56:12;;;;;;;4.70;4.30;;;;;;;;;;472561;29;1073;-74
2023/05/02 00:56:56;;;;;;;;;;;;;;;;;;;;;
2023/05/02 00:57:21;;;;;;;4.50;4.10;;;;;;;;;;471131;29;1132;-74
2023/05/02 00:57:47;;;;;;;;;;;;;;;;;;;;;
2023/05/02 00:58:26;;;;;;;4.20;3.90;;;;;;;;;;475692;29;1035;-75
2023/05/02 00:58:45;;;;;;;4.70;3.90;;;;;;;;;;477104;29;1338;-74
2023/05/02 00:59:06;;;;;;;4.80;4.30;;;;;;;;;;477684;29;1540;-75
2023/05/02 00:59:35;;;;;;;4.80;4.40;;;;;;;;;;478162;29;1687;-74
2023/05/02 00:59:51;;;;;;;4.80;4.40;;;;;;;;;;478631;29;1500;-74
2023/05/02 01:00:16;;;;;;;4.87;4.47;;;;;;;;;;480082;29;1261;-74
2023/05/02 01:01:04;;;;;;;4.95;4.45;;;;;;;;;;480315;29;1227;-74
2023/05/02 01:01:45;;;;;;;4.57;4.18;;;;;;;;;;471454;29;1211;-74
2023/05/02 01:02:21;;;;;;;4.82;4.43;;;;;;;;;;470636;29;1304;-74
2023/05/02 01:02:45;;;;;;;4.60;4.20;;;;;;;;;;480324;29;1232;-74
2023/05/02 01:03:58;;;;;;;4.80;4.40;;;;;;;;;;478505;29;1300;-74
2023/05/02 01:04:33;;;;;;;4.68;4.28;;;;;;;;;;482902;29;1277;-74
2023/05/02 01:05:07;;;;;;;4.80;4.40;;;;;;;;;;479951;29;1853;-74
2023/05/02 01:05:49;;;;;;;4.70;4.30;;;;;;;;;;480520;29;2306;-74
2023/05/02 01:06:15;;;;;;;4.90;4.43;;;;;;;;;;481831;29;1286;-74
2023/05/02 01:06:52;;;;;;;4.88;4.47;;;;;;;;;;480221;29;1376;-74
2023/05/02 01:07:24;;;;;;;4.72;4.32;;;;;;;;;;481212;29;1111;-75
2023/05/02 01:07:42;;;;;;;4.82;4.43;;;;;;;;;;481530;29;1350;-74
2023/05/02 01:08:39;;;;;;;5.30;4.80;;;;;;;;;;481623;29;1275;-74
2023/05/02 01:09:13;;;;;;;5.30;4.80;;;;;;;;;;475891;29;1368;-74
2023/05/02 01:09:53;;;;;;;5.45;4.95;;;;;;;;;;474635;29;1246;-74
2023/05/02 01:11:34;;;;;;;5.20;4.70;;;;;;;;;;458662;29;1220;-74
2023/05/02 01:12:27;;;;;;;5.32;4.90;;;;;;;;;;463207;29;1891;-74
2023/05/02 01:13:24;;;;;;;5.80;5.30;;;;;;;;;;462159;29;1761;-74
2023/05/02 01:13:58;;;;;;;5.47;5.05;;;;;;;;;;461412;29;2071;-74
2023/05/02 01:14:41;;;;;;;5.45;4.95;;;;;;;;;;468560;29;1195;-74
2023/05/02 01:15:18;;;;;;;5.30;4.90;;;;;;;;;;461449;29;1349;-74
2023/05/02 01:16:06;;;;;;;4.88;4.47;;;;;;;;;;465815;29;1077;-73
2023/05/02 01:16:37;;;;;;;5.05;4.60;;;;;;;;;;471109;29;1274;-73
2023/05/02 01:17:17;;;;;;;5.90;4.88;;;;;;;;;;467499;29;1456;-74
2023/05/02 01:18:12;;;;;;;4.65;4.25;;;;;;;;;;466601;29;1887;-77
2023/05/02 01:19:00;;;;;;;;;;;;;;;;;;;;;
2023/05/02 01:19:33;;;;;;;4.45;4.05;;;;;;;;;;466754;29;1004;-76
2023/05/02 01:21:02;;;;;;;5.00;4.35;;;;;;;;;;464551;29;1580;-75
2023/05/02 01:21:47;;;;;;;4.72;4.32;;;;;;;;;;464504;29;1256;-74
2023/05/02 01:22:40;;;;;;;5.20;4.80;;;;;;;;;;462962;29;1489;-75
2023/05/02 01:23:21;;;;;;;4.93;4.43;;;;;;;;;;455710;29;1055;-74
2023/05/02 01:23:40;;;;;;;5.07;4.68;;;;;;;;;;462583;29;1312;-74
2023/05/02 01:26:22;;;;;;;4.90;4.50;;;;;;;;;;459964;29;1183;-74
2023/05/02 01:27:05;;;;;;;5.32;4.82;;;;;;;;;;459794;29;1246;-74
2023/05/02 01:27:27;;;;;;;5.05;4.55;;;;;;;;;;462708;29;1271;-75
2023/05/02 01:28:10;;;;;;;5.18;4.78;;;;;;;;;;461148;29;1773;-75
2023/05/02 01:29:50;;;;;;;4.80;4.40;;;;;;;;;;454730;29;1303;-74
2023/05/02 01:30:39;;;;;;;4.95;4.55;;;;;;;;;;459812;29;2000;-75
2023/05/02 01:31:09;;;;;;;4.97;4.57;;;;;;;;;;460102;29;1357;-75
2023/05/02 01:31:29;;;;;;;5.13;4.63;;;;;;;;;;459254;29;918;-74
2023/05/02 01:31:53;;;;;;;5.40;4.95;;;;;;;;;;469382;29;1225;-75
2023/05/02 01:32:22;;;;;;;5.10;4.50;;;;;;;;;;464293;29;945;-75
2023/05/02 01:32:56;;;;;;;4.93;4.50;;;;;;;;;;457298;29;1539;-74
2023/05/02 01:33:23;;;;;;;4.80;4.40;;;;;;;;;;457232;29;1173;-74
2023/05/02 01:34:08;;;;;;;4.75;4.35;;;;;;;;;;456793;29;1334;-74
2023/05/02 01:34:59;;;;;;;4.82;4.35;;;;;;;;;;459321;29;1289;-76
2023/05/02 01:35:35;;;;;;;5.10;4.65;;;;;;;;;;459150;29;1505;-75
2023/05/02 01:36:47;;;;;;;5.10;4.70;;;;;;;;;;457167;30;1283;-75
2023/05/02 01:37:58;;;;;;;5.38;4.97;;;;;;;;;;461810;29;1297;-75
2023/05/02 01:38:07;;;;;;;5.20;4.70;;;;;;;;;;460081;29;1323;-75
2023/05/02 01:38:29;;;;;;;4.97;4.57;;;;;;;;;;457755;29;985;-75
2023/05/02 01:38:57;;;;;;;5.00;4.60;;;;;;;;;;458354;29;1048;-75
2023/05/02 01:39:25;;;;;;;4.97;4.57;;;;;;;;;;466329;29;1083;-75
2023/05/02 01:39:54;;;;;;;5.57;4.97;;;;;;;;;;454434;30;1626;-75
2023/05/02 01:40:29;;;;;;;6.25;4.63;;;;;;;;;;455597;29;1183;-75
2023/05/02 01:41:02;;;;;;;5.10;4.70;;;;;;;;;;455040;30;1567;-75
2023/05/02 01:42:46;;;;;;;5.43;5.03;;;;;;;;;;458217;29;1441;-75
2023/05/02 01:43:23;;;;;;;5.00;4.50;;;;;;;;;;467991;29;1058;-75
2023/05/02 01:44:02;;;;;;;5.30;4.80;;;;;;;;;;455821;29;1378;-74
2023/05/02 01:44:47;;;;;;;5.53;5.13;;;;;;;;;;457596;29;1636;-75
2023/05/02 01:45:30;;;;;;;5.18;4.78;;;;;;;;;;454663;29;1732;-76
2023/05/02 01:46:32;;;;;;;5.35;4.85;;;;;;;;;;469130;29;1444;-75
2023/05/02 01:47:10;;;;;;;5.45;4.95;;;;;;;;;;473731;29;1797;-75
2023/05/02 01:47:29;;;;;;;5.00;4.60;;;;;;;;;;471389;29;1534;-76
2023/05/02 01:47:50;;;;;;;5.38;4.85;;;;;;;;;;472363;29;1219;-74
2023/05/02 01:48:12;;;;;;;5.75;5.25;;;;;;;;;;472896;29;946;-75
2023/05/02 01:49:00;;;;;;;5.55;5.05;;;;;;;;;;469427;29;1416;-75
2023/05/02 01:49:08;;;;;;;5.93;5.30;;;;;;;;;;468348;29;2248;-75
2023/05/02 01:49:24;;;;;;;5.80;5.30;;;;;;;;;;468823;29;1283;-74
2023/05/02 01:50:44;;;;;;;5.75;5.25;;;;;;;;;;470415;29;1998;-75
2023/05/02 01:51:20;;;;;;;5.93;5.38;;;;;;;;;;468468;29;1289;-75
2023/05/02 01:52:16;;;;;;;5.55;5.05;;;;;;;;;;469443;29;1695;-74
2023/05/02 01:52:50;;;;;;;;;;;;;;;;;;;;;
2023/05/02 01:53:26;;;;;;;5.32;4.82;;;;;;;;;;457306;29;1072;-74
2023/05/02 01:54:25;;;;;;;5.15;4.70;;;;;;;;;;452308;30;1461;-76
2023/05/02 01:54:50;;;;;;;5.03;4.63;;;;;;;;;;454171;30;1282;-75
2023/05/02 01:55:08;;;;;;;4.82;4.43;;;;;;;;;;454437;30;1209;-75
2023/05/02 01:55:50;;;;;;;4.75;4.35;;;;;;;;;;455681;30;1498;-75
2023/05/02 01:56:20;;;;;;;5.55;5.05;;;;;;;;;;455853;29;1221;-74
2023/05/02 01:56:49;;;;;;;5.68;5.22;;;;;;;;;;456314;29;1316;-75
2023/05/02 01:57:16;;;;;;;5.97;5.38;;;;;;;;;;453771;30;1246;-75
2023/05/02 01:58:35;;;;;;;6.05;5.45;;;;;;;;;;456274;30;1154;-74
2023/05/02 01:58:38;;;;;;;5.80;5.30;;;;;;;;;;457840;30;1289;-75
2023/05/02 02:00:23;;;;;;;6.65;6.05;;;;;;;;;;454846;29;1027;-75
2023/05/02 02:00:48;;;;;;;6.85;6.25;;;;;;;;;;461094;29;1301;-75
2023/05/02 02:01:08;;;;;;;7.35;6.70;;;;;;;;;;461469;29;1141;-75
2023/05/02 02:02:36;;;;;;;7.40;6.80;;;;;;;;;;455723;30;1232;-75
2023/05/02 02:03:12;;;;;;;7.13;6.53;;;;;;;;;;458481;30;1233;-75
2023/05/02 02:04:05;;;;;;;;;;;;;;;;;;;;;
2023/05/02 02:04:53;;;;;;;6.97;6.40;;;;;;;;;;463977;29;1437;-75
2023/05/02 02:05:45;;;;;;;7.43;6.82;;;;;;;;;;459294;29;1238;-75
2023/05/02 02:06:02;;;;;;;7.15;6.55;;;;;;;;;;460546;29;1241;-75
2023/05/02 02:06:44;;;;;;;7.25;6.65;;;;;;;;;;459836;29;1472;-75
2023/05/02 02:08:09;;;;;;;7.22;6.63;;;;;;;;;;459447;29;869;-74
2023/05/02 02:08:47;;;;;;;;;;;;;;;;;;;;;
2023/05/02 02:09:14;;;;;;;6.72;6.15;;;;;;;;;;461192;29;1076;-75
2023/05/02 02:09:47;;;;;;;6.70;6.10;;;;;;;;;;459977;29;1163;-74
2023/05/02 02:10:13;;;;;;;6.70;6.20;;;;;;;;;;459421;29;1253;-75
2023/05/02 02:10:58;;;;;;;6.53;6.03;;;;;;;;;;461030;29;1197;-75
2023/05/02 02:11:19;;;;;;;6.72;6.18;;;;;;;;;;470049;29;1963;-75
2023/05/02 02:12:10;;;;;;;6.45;5.95;;;;;;;;;;457434;29;1311;-74
2023/05/02 02:12:48;;;;;;;6.30;5.70;;;;;;;;;;458187;29;1207;-75
2023/05/02 02:13:33;;;;;;;6.60;6.00;;;;;;;;;;462002;29;1883;-75
2023/05/02 02:14:03;;;;;;;6.43;5.88;;;;;;;;;;458992;29;1412;-75
2023/05/02 02:15:03;;;;;;;6.32;5.82;;;;;;;;;;467808;29;1344;-75
2023/05/02 02:15:08;;;;;;;6.47;5.90;;;;;;;;;;468472;29;1009;-73
2023/05/02 02:15:49;;;;;;;6.40;5.80;;;;;;;;;;469640;29;1319;-73
2023/05/02 02:16:31;;;;;;;6.57;5.97;;;;;;;;;;462177;29;1893;-75
2023/05/02 02:17:18;;;;;;;5.90;5.50;;;;;;;;;;458976;29;1266;-75
2023/05/02 02:18:17;;;;;;;;;;;;;;;;;;;;;
2023/05/02 02:19:25;;;;;;;6.70;6.10;;;;;;;;;;460883;29;1248;-74
2023/05/02 02:20:34;;;;;;;6.72;6.13;;;;;;;;;;459081;29;1344;-75
2023/05/02 02:20:56;;;;;;;7.55;6.88;;;;;;;;;;463507;29;1380;-75
2023/05/02 02:21:22;;;;;;;7.35;6.72;;;;;;;;;;461744;29;1566;-75
2023/05/02 02:21:47;;;;;;;6.93;6.38;;;;;;;;;;469996;29;1411;-74
2023/05/02 02:24:13;;;;;;;6.93;6.40;;;;;;;;;;475402;29;1029;-73
2023/05/02 02:25:41;;;;;;;;;;;;;;;;;;;;;
2023/05/02 02:26:25;;;;;;;7.07;6.47;;;;;;;;;;461840;29;1285;-74
2023/05/02 02:26:52;;;;;;;7.00;6.40;;;;;;;;;;461936;29;1707;-74
2023/05/02 02:27:23;;;;;;;7.30;6.60;;;;;;;;;;461324;29;1243;-75
2023/05/02 02:27:47;;;;;;;7.10;6.40;;;;;;;;;;463601;29;1321;-74
2023/05/02 02:28:53;;;;;;;6.40;5.90;;;;;;;;;;459180;29;1383;-74
2023/05/02 02:29:12;;;;;;;6.55;6.05;;;;;;;;;;462415;29;1723;-73
2023/05/02 02:29:34;;;;;;;6.63;6.13;;;;;;;;;;457891;29;1335;-74
2023/05/02 02:30:07;;;;;;;6.55;6.05;;;;;;;;;;459645;29;1190;-74
2023/05/02 02:30:36;;;;;;;6.75;6.25;;;;;;;;;;466962;29;1074;-74
2023/05/02 02:31:12;;;;;;;6.30;5.80;;;;;;;;;;471770;29;1314;-75
2023/05/02 02:31:44;;;;;;;6.45;5.95;;;;;;;;;;465818;29;1227;-74
2023/05/02 02:32:29;;;;;;;6.80;6.30;;;;;;;;;;464083;29;1336;-74
2023/05/02 02:32:57;;;;;;;6.70;6.10;;;;;;;;;;474924;29;1395;-74
2023/05/02 02:33:33;;;;;;;;;;;;;;;;;;;;;
2023/05/02 02:34:46;;;;;;;6.07;5.57;;;;;;;;;;470291;29;1264;-75
2023/05/02 02:35:30;;;;;;;6.82;6.22;;;;;;;;;;473848;29;1080;-73
2023/05/02 02:35:55;;;;;;;7.50;6.90;;;;;;;;;;471817;29;1333;-75
2023/05/02 02:36:16;;;;;;;7.40;6.80;;;;;;;;;;473023;28;1174;-74
2023/05/02 02:36:46;;;;;;;7.60;7.00;;;;;;;;;;470781;29;1743;-75
2023/05/02 02:37:35;;;;;;;7.20;6.60;;;;;;;;;;471993;29;924;-75
2023/05/02 02:38:12;;;;;;;7.75;7.05;;;;;;;;;;478666;29;1877;-73
2023/05/02 02:39:55;;;;;;;9.38;8.57;;;;;;;;;;472542;28;1422;-75
2023/05/02 02:41:12;;;;;;;11.95;10.95;;;;;;;;;;473317;28;1249;-75
2023/05/02 02:41:26;;;;;;;11.05;10.05;;;;;;;;;;479722;28;1670;-74
2023/05/02 02:41:54;;;;;;;10.90;9.95;;;;;;;;;;486901;28;1288;-72
2023/05/02 02:42:13;;;;;;;11.40;10.40;;;;;;;;;;488644;28;1474;-75
2023/05/02 02:42:49;;;;;;;11.43;10.43;;;;;;;;;;477511;28;1998;-75
2023/05/02 02:43:37;;;;;;;10.88;9.98;;;;;;;;;;491294;28;2168;-74
2023/05/02 02:44:42;;;;;;;10.10;9.18;;;;;;;;;;481840;28;1181;-75
2023/05/02 02:45:35;;;;;;;10.10;9.20;;;;;;;;;;482171;28;1278;-75
2023/05/02 02:45:59;;;;;;;9.45;8.65;;;;;;;;;;467866;29;1779;-75
2023/05/02 02:46:43;;;;;;;10.35;9.55;;;;;;;;;;470057;29;936;-75
2023/05/02 02:47:52;;;;;;;9.20;8.48;;;;;;;;;;476111;28;1895;-75
2023/05/02 02:47:53;;;;;;;10.10;9.23;;;;;;;;;;479787;28;1321;-74
2023/05/02 02:49:44;;;;;;;9.60;8.80;;;;;;;;;;476301;28;1503;-75
2023/05/02 02:50:11;;;;;;;10.45;9.55;;;;;;;;;;472857;29;908;-74
2023/05/02 02:51:22;;;;;;;11.02;10.13;;;;;;;;;;478995;28;1323;-75
2023/05/02 02:51:41;;;;;;;10.00;9.20;;;;;;;;;;478534;28;2030;-74
2023/05/02 02:52:19;;;;;;;9.80;9.00;;;;;;;;;;487605;28;1283;-74
2023/05/02 02:52:55;;;;;;;11.95;10.95;;;;;;;;;;479127;28;1255;-74
2023/05/02 02:53:40;;;;;;;11.68;10.68;;;;;;;;;;486813;28;1253;-75
2023/05/02 02:54:15;;;;;;;11.73;10.73;;;;;;;;;;490675;28;1340;-75
2023/05/02 02:54:49;;;;;;;12.10;11.10;;;;;;;;;;482595;28;1683;-75
2023/05/02 02:55:41;;;;;;;11.90;10.90;;;;;;;;;;482182;28;1396;-74
2023/05/02 02:57:13;;;;;;;11.48;10.38;;;;;;;;;;480236;28;1831;-75
2023/05/02 02:57:51;;;;;;;11.05;10.10;;;;;;;;;;484981;28;1508;-75
2023/05/02 02:58:27;;;;;;;10.68;9.77;;;;;;;;;;483650;28;1721;-74
2023/05/02 02:59:04;;;;;;;10.77;9.88;;;;;;;;;;475832;28;1367;-75
2023/05/02 02:59:33;;;;;;;10.27;9.40;;;;;;;;;;478857;28;1846;-75
2023/05/02 03:00:47;;;;;;;10.25;9.40;;;;;;;;;;480296;28;1229;-75
2023/05/02 03:00:48;;;;;;;11.73;10.73;;;;;;;;;;477962;28;1368;-75
2023/05/02 03:01:11;;;;;;;10.88;9.98;;;;;;;;;;479629;28;1137;-74
2023/05/02 03:01:47;;;;;;;;;;;;;;;;;;;;;
2023/05/02 03:02:14;;;;;;;11.68;10.70;;;;;;;;;;482087;28;1090;-74
2023/05/02 03:02:55;;;;;;;12.50;11.50;;;;;;;;;;485683;28;1365;-75
2023/05/02 03:03:34;;;;;;;10.95;10.10;;;;;;;;;;474788;28;1291;-74
2023/05/02 03:03:59;;;;;;;11.10;10.20;;;;;;;;;;472571;28;1632;-75
2023/05/02 03:04:28;;;;;;;12.10;11.10;;;;;;;;;;475855;29;1119;-75
2023/05/02 03:05:47;;;;;;;12.85;11.65;;;;;;;;;;471310;29;1242;-74
2023/05/02 03:06:27;;;;;;;14.82;13.48;;;;;;;;;;473786;29;1484;-75
2023/05/02 03:06:46;;;;;;;13.82;12.65;;;;;;;;;;474833;29;971;-75
2023/05/02 03:07:15;;;;;;;13.68;12.52;;;;;;;;;;470983;28;1165;-75
2023/05/02 03:07:30;;;;;;;14.68;13.38;;;;;;;;;;480335;28;1266;-74
2023/05/02 03:07:46;;;;;;;14.33;13.03;;;;;;;;;;473206;28;1099;-75
2023/05/02 03:08:05;;;;;;;14.30;13.00;;;;;;;;;;478354;28;1110;-74
2023/05/02 03:08:47;;;;;;;14.60;13.30;;;;;;;;;;475278;28;1136;-75
2023/05/02 03:09:05;;;;;;;13.77;12.60;;;;;;;;;;472052;28;1328;-74
2023/05/02 03:09:32;;;;;;;13.50;12.30;;;;;;;;;;472156;28;1268;-75
2023/05/02 03:09:57;;;;;;;14.68;13.38;;;;;;;;;;474654;29;1302;-74
2023/05/02 03:11:40;;;;;;;13.85;12.65;;;;;;;;;;480688;29;1496;-75
2023/05/02 03:12:09;;;;;;;;;;;;;;;;;;;;;
2023/05/02 03:12:48;;;;;;;13.88;12.68;;;;;;;;;;475499;29;1125;-76
2023/05/02 03:13:15;;;;;;;15.50;14.10;;;;;;;;;;468885;29;1261;-75
2023/05/02 03:13:40;;;;;;;14.20;13.02;;;;;;;;;;482747;29;1411;-74
2023/05/02 03:14:14;;;;;;;13.57;12.38;;;;;;;;;;477713;29;1144;-74
2023/05/02 03:14:30;;;;;;;14.23;13.02;;;;;;;;;;481151;29;1349;-75
2023/05/02 03:14:48;;;;;;;15.80;14.40;;;;;;;;;;477340;29;1080;-75
2023/05/02 03:15:57;;;;;;;16.52;14.85;;;;;;;;;;478601;29;1087;-75
2023/05/02 03:17:40;;;;;;;;;;;;;;;;;;;;;
2023/05/02 03:17:56;;;;;;;27.10;24.55;;;;;;;;;;473987;29;1995;-74
2023/05/02 03:18:20;;;;;;;31.10;28.10;;;;;;;;;;474333;29;1225;-74
2023/05/02 03:18:36;;;;;;;36.00;32.55;;;;;;;;;;476356;29;1205;-74
2023/05/02 03:18:51;;;;;;;37.83;34.10;;;;;;;;;;472647;29;1277;-75
2023/05/02 03:19:19;;;;;;;39.80;35.80;;;;;;;;;;471506;29;1198;-75
2023/05/02 03:19:46;;;;;;;41.58;37.47;;;;;;;;;;472014;29;1708;-75
2023/05/02 03:20:02;;;;;;;42.40;38.25;;;;;;;;;;478330;29;1250;-75
2023/05/02 03:20:23;;;;;;;39.85;35.97;;;;;;;;;;480369;29;1281;-75
2023/05/02 03:21:10;;;;;;;;;;;;;;;;;;;;;
2023/05/02 03:21:36;;;;;;;37.15;33.55;;;;;;;;;;466404;29;1438;-74
2023/05/02 03:22:23;;;;;;;;;;;;;;;;;;;;;
2023/05/02 03:22:57;;;;;;;36.20;32.60;;;;;;;;;;473256;28;1378;-74
2023/05/02 03:23:16;;;;;;;36.55;33.00;;;;;;;;;;473249;28;1362;-74
2023/05/02 03:24:17;;;;;;;38.17;34.47;;;;;;;;;;471718;28;1290;-74
2023/05/02 03:24:30;;;;;;;38.50;34.70;;;;;;;;;;472340;28;1755;-75
2023/05/02 03:26:03;;;;;;;40.65;36.75;;;;;;;;;;468190;29;1636;-75
2023/05/02 03:27:07;;;;;;;40.95;37.03;;;;;;;;;;476631;29;1225;-74
2023/05/02 03:27:36;;;;;;;42.55;38.38;;;;;;;;;;469184;29;1294;-74
2023/05/02 03:27:55;;;;;;;42.53;38.35;;;;;;;;;;472918;28;1270;-74
2023/05/02 03:28:14;;;;;;;41.83;37.72;;;;;;;;;;473216;28;1317;-75
2023/05/02 03:28:58;;;;;;;42.30;38.10;;;;;;;;;;471433;28;1374;-75
2023/05/02 03:29:30;;;;;;;;;;;;;;;;;;;;;
2023/05/02 03:29:58;;;;;;;43.05;38.95;;;;;;;;;;478356;28;1281;-75
2023/05/02 03:30:13;;;;;;;42.03;38.03;;;;;;;;;;476829;28;1371;-74
2023/05/02 03:30:34;;;;;;;42.40;38.30;;;;;;;;;;473797;28;1461;-75
2023/05/02 03:30:56;;;;;;;42.08;37.97;;;;;;;;;;483133;28;1978;-75
2023/05/02 03:31:26;;;;;;;42.15;38.08;;;;;;;;;;476879;28;1241;-75
2023/05/02 03:31:47;;;;;;;41.22;37.22;;;;;;;;;;474128;28;1296;-75
2023/05/02 03:32:09;;;;;;;42.33;38.15;;;;;;;;;;481487;28;1169;-76
2023/05/02 03:33:06;;;;;;;;;;;;;;;;;;;;;
2023/05/02 03:33:28;;;;;;;43.70;39.40;;;;;;;;;;471688;28;1364;-75
2023/05/02 03:33:59;;;;;;;42.67;38.55;;;;;;;;;;476198;28;1438;-75
2023/05/02 03:34:25;;;;;;;44.72;40.25;;;;;;;;;;473468;28;1324;-73
2023/05/02 03:35:03;;;;;;;43.92;39.72;;;;;;;;;;475899;28;1360;-74
2023/05/02 03:35:55;;;;;;;45.08;40.67;;;;;;;;;;472131;29;1393;-76
2023/05/02 03:36:10;;;;;;;45.53;41.13;;;;;;;;;;472610;28;1785;-76
2023/05/02 03:36:41;;;;;;;;;;;;;;;;;;;;;
2023/05/02 03:37:23;;;;;;;45.60;40.95;;;;;;;;;;472456;28;1310;-75
2023/05/02 03:37:47;;;;;;;46.97;42.33;;;;;;;;;;474695;28;1287;-76
2023/05/02 03:38:29;;;;;;;45.47;40.97;;;;;;;;;;479154;28;1335;-75
2023/05/02 03:39:02;;;;;;;45.33;40.92;;;;;;;;;;486289;28;1394;-74
2023/05/02 03:39:30;;;;;;;46.10;41.53;;;;;;;;;;474525;28;1709;-75
2023/05/02 03:39:57;;;;;;;46.20;41.60;;;;;;;;;;475140;29;1418;-75
2023/05/02 03:40:25;;;;;;;;;;;;;;;;;;;;;
2023/05/02 03:40:50;;;;;;;45.65;41.15;;;;;;;;;;470853;29;1338;-75
2023/05/02 03:41:05;;;;;;;46.35;41.75;;;;;;;;;;472892;28;1278;-75
2023/05/02 03:42:06;;;;;;;47.25;42.55;;;;;;;;;;470445;28;1291;-76
2023/05/02 03:42:48;;;;;;;47.58;42.90;;;;;;;;;;474772;28;1264;-74
2023/05/02 03:43:04;;;;;;;46.95;42.13;;;;;;;;;;473685;28;1746;-75
2023/05/02 03:43:23;;;;;;;46.40;41.67;;;;;;;;;;471375;28;1193;-75
2023/05/02 03:43:38;;;;;;;46.22;41.70;;;;;;;;;;475872;28;1269;-74
2023/05/02 03:44:06;;;;;;;47.67;42.88;;;;;;;;;;480302;28;1315;-75
2023/05/02 03:44:44;;;;;;;48.35;43.40;;;;;;;;;;474478;28;1246;-75
2023/05/02 03:45:19;;;;;;;;;;;;;;;;;;;;;
2023/05/02 03:47:13;;;;;;;48.08;43.17;;;;;;;;;;474764;28;2078;-75
2023/05/02 03:47:37;;;;;;;48.13;43.28;;;;;;;;;;479564;28;1417;-75
2023/05/02 03:48:05;;;;;;;48.38;43.25;;;;;;;;;;479055;28;1214;-75
2023/05/02 03:48:33;;;;;;;;;;;;;;;;;;;;;
2023/05/02 03:49:07;;;;;;;49.15;44.03;;;;;;;;;;475932;28;1029;-76
2023/05/02 03:50:35;;;;;;;48.03;43.10;;;;;;;;;;489925;28;952;-75
2023/05/02 03:51:00;;;;;;;48.42;43.45;;;;;;;;;;477893;28;1986;-75
2023/05/02 03:51:28;;;;;;;48.88;43.88;;;;;;;;;;475861;28;1437;-74
2023/05/02 03:51:55;;;;;;;48.92;43.72;;;;;;;;;;478045;28;1267;-75
2023/05/02 03:52:36;;;;;;;47.88;43.08;;;;;;;;;;485387;28;1225;-75
2023/05/02 03:53:15;;;;;;;48.40;43.47;;;;;;;;;;474923;28;1364;-75
2023/05/02 03:53:38;;;;;;;48.45;43.45;;;;;;;;;;475865;28;2060;-75
2023/05/02 03:54:20;;;;;;;48.60;43.67;;;;;;;;;;478660;28;1138;-75
2023/05/02 03:54:56;;;;;;;48.10;43.20;;;;;;;;;;485123;28;1290;-75
2023/05/02 03:55:41;;;;;;;;;;;;;;;;;;;;;
2023/05/02 03:56:18;;;;;;;48.70;43.70;;;;;;;;;;486917;28;1129;-74
2023/05/02 03:56:47;;;;;;;46.70;42.05;;;;;;;;;;488204;28;2122;-74
2023/05/02 03:57:13;;;;;;;47.80;42.88;;;;;;;;;;473360;28;1332;-77
2023/05/02 03:57:37;;;;;;;48.55;43.55;;;;;;;;;;476807;28;1205;-74
2023/05/02 03:57:56;;;;;;;48.58;43.58;;;;;;;;;;473970;28;1746;-75
2023/05/02 03:58:23;;;;;;;47.97;43.10;;;;;;;;;;478782;28;1308;-74
2023/05/02 03:58:47;;;;;;;48.13;43.22;;;;;;;;;;477170;28;1195;-75